Aérodrome :
LOGIN :

S'inscrire | Disclaimer

   EN    FR    IT 

 










Légende :    VFR   VFR Marginal   IFR   IFR Intensif   IFR Très Intensif
Visi : 
Plafond : 
>= 8 km
>= 3000ft
5 à 8 km
1000 à 3000 ft
1500m à 5 km
500 à 1000 ft
800 à 1500m
200 à 500 ft
< 800m
< 200 ft
Symboles :   Orages  Brouillard  Fortes neiges  Fortes précipitations  Vent > 20 kt
SIGMETs :   Divers  Orages  Givrage  Turbulence  Onde Orograph.  Cendres Volcan.






- Altitude de l'aérodrome : 459 ft
- Code IATA : CER


LFRC - Cherbourg / Maupertus

DERNIER METAR :
  • 050600Z AUTO 25019G30KT 6000 DZ OVC005 15/15 Q1014 TEMPO 1500 RADZ

METARs EXPIRÉS :
  • 050530Z AUTO 24019KT 2900 DZ BR OVC005 15/15 Q1014 TEMPO RADZ BECMG 25015G30KT
  • 050500Z AUTO 24016KT 210V270 3500 -DZ BR OVC005 15/15 Q1015
  • 050430Z AUTO 24017KT 4000 DZ BR OVC005 15/15 Q1015
  • 050400Z AUTO 25017KT 5000 DZ BR OVC005 15/15 Q1015
  • 050330Z AUTO 25020KT 7000 -DZ OVC006 15/15 Q1015

TAF TAF LFRC
Valide du 05 à 06h jusqu'au 05 à 15h UTC


050500Z 0506/0515 25015G30KT 9999 OVC008
TEMPO 0506/0510 2000 RADZ OVC005
PROB40
TEMPO 0506/0509 1500 RADZ BKN003
BECMG 0509/0511 BKN015
BECMG 0511/0513 SCT020



MET'MAP, la Météo Aéronautique d'un coup d'oeil ! - Copyright ORBIFLY Décembre 2007 - Disclaimer

ORBIFLY MET'MAP TEAM :

Programmation & Développement : Alexandra Zaïnal
Sur une idée originale de : Baudouin d'Aumeries
Assistance à la programmation : Marc-Olivier Méhu
Soutien technique & logistique : Manuel Goepfert

Contact : metmap@orbifly.com




SOURCES & CREDITS :

   NOAA